createdAt,value
2024-03-01T00:00:41.516Z,92.49
2024-03-01T00:05:41.474Z,93.43
2024-03-01T00:10:41.413Z,92.59
2024-03-01T00:15:41.358Z,91.86
2024-03-01T00:20:41.244Z,92.76
2024-03-01T00:25:41.192Z,93.49
2024-03-01T00:30:41.104Z,93.38
2024-03-01T00:35:41.066Z,93.28
2024-03-01T00:40:40.965Z,92.97
2024-03-01T00:45:40.930Z,92.35
2024-03-01T00:50:40.837Z,93.01
2024-03-01T00:55:40.803Z,93.22
2024-03-01T01:00:40.696Z,93.22
2024-03-01T01:05:40.646Z,93.84
2024-03-01T01:10:40.782Z,93.95
2024-03-01T01:15:40.574Z,93.22
2024-03-01T01:20:40.466Z,93.22
2024-03-01T01:25:40.410Z,93.43
2024-03-01T01:30:40.325Z,93.88
2024-03-01T01:35:40.255Z,94.36
2024-03-01T01:40:40.249Z,94.36
2024-03-01T01:45:40.136Z,94.32
2024-03-01T01:50:40.043Z,94.53
2024-03-01T01:55:40.046Z,94.68
2024-03-01T02:00:39.954Z,94.79
2024-03-01T02:05:39.866Z,94.74
2024-03-01T02:10:39.809Z,94.08
2024-03-01T02:15:39.764Z,93.77
2024-03-01T02:20:39.661Z,93.87
2024-03-01T02:25:39.691Z,93.52
2024-03-01T02:30:39.525Z,93.31
2024-03-01T02:35:39.458Z,93.16
2024-03-01T02:40:39.414Z,92.76
2024-03-01T02:45:39.339Z,92.76
2024-03-01T02:50:39.252Z,92.55
2024-03-01T02:55:39.256Z,92.71
2024-03-01T03:00:39.120Z,92.71
2024-03-01T03:05:39.065Z,93.54
2024-03-01T03:10:39.037Z,94.26
2024-03-01T03:15:38.913Z,93.74
2024-03-01T03:20:38.835Z,93.58
2024-03-01T03:25:38.836Z,94.31
2024-03-01T03:30:38.710Z,94.31
2024-03-01T03:35:38.643Z,93.16
2024-03-01T03:40:38.748Z,93.02
2024-03-01T03:45:38.517Z,93.85
2024-03-01T03:50:38.429Z,93.74
2024-03-01T03:55:38.438Z,94.06
2024-03-01T04:00:38.353Z,93.33
2024-03-01T04:05:38.232Z,93.02
2024-03-01T04:10:38.260Z,92.15
2024-03-01T04:15:38.111Z,92.15
2024-03-01T04:20:38.012Z,91.74
2024-03-01T04:25:38.001Z,92.15
2024-03-01T04:30:37.893Z,91.53
2024-03-01T04:35:37.839Z,91.42
2024-03-01T04:40:37.809Z,91.69
2024-03-01T04:45:37.707Z,92.21
2024-03-01T04:50:37.639Z,92.11
2024-03-01T04:55:37.634Z,92.68
2024-03-01T05:00:37.527Z,93.88
2024-03-01T05:05:37.434Z,93.53
2024-03-01T05:10:37.481Z,92.35
2024-03-01T05:15:37.301Z,90.84
2024-03-01T05:20:37.239Z,91.05
2024-03-01T05:25:37.215Z,89.95
2024-03-01T05:30:47.038Z,89.95
2024-03-01T05:35:38.053Z,92.02
2024-03-01T05:40:45.781Z,92.27
2024-03-01T05:45:37.897Z,92.42
2024-03-01T05:50:36.829Z,94.65
2024-03-01T05:55:36.840Z,96.30
2024-03-01T06:00:36.680Z,96.82
2024-03-01T06:05:36.609Z,96.24
2024-03-01T06:10:36.746Z,95.99
2024-03-01T06:15:36.502Z,95.64
2024-03-01T06:20:36.433Z,95.43
2024-03-01T06:25:36.395Z,95.02
2024-03-01T06:30:39.199Z,95.22
2024-03-01T06:35:36.208Z,95.80
2024-03-01T06:40:36.189Z,95.49
2024-03-01T06:45:36.078Z,94.72
2024-03-01T06:50:36.019Z,94.42
2024-03-01T06:55:36.044Z,94.42
2024-03-01T07:00:36.002Z,94.57
2024-03-01T07:05:35.796Z,94.47
2024-03-01T07:10:35.791Z,94.23
2024-03-01T07:15:36.955Z,93.98
2024-03-01T07:20:35.614Z,93.21
2024-03-01T07:25:35.722Z,92.34
2024-03-01T07:30:35.481Z,91.62
2024-03-01T07:35:35.419Z,91.68
2024-03-01T07:40:35.402Z,90.08
2024-03-01T07:45:35.318Z,82.82
2024-03-01T07:50:35.198Z,83.20
2024-03-01T07:55:38.301Z,85.64
2024-03-01T08:00:35.103Z,87.05
2024-03-01T08:05:35.004Z,87.71
2024-03-01T08:10:35.046Z,88.92
2024-03-01T08:15:34.860Z,89.48
2024-03-01T08:20:34.826Z,90.45
2024-03-01T08:25:34.837Z,90.86
2024-03-01T08:30:34.682Z,90.96
2024-03-01T08:35:34.605Z,91.38
2024-03-01T08:40:34.777Z,91.47
2024-03-01T08:45:34.471Z,90.96
2024-03-01T08:50:34.411Z,90.96
2024-03-01T08:55:34.359Z,90.92
2024-03-01T09:00:34.290Z,91.13
2024-03-01T09:05:34.208Z,90.78
2024-03-01T09:10:34.199Z,90.06
2024-03-01T09:15:34.066Z,90.22
2024-03-01T09:20:34.029Z,89.04
2024-03-01T09:25:33.955Z,89.11
2024-03-01T09:30:33.896Z,88.18
2024-03-01T09:35:33.798Z,87.02
2024-03-01T09:40:33.806Z,86.40
2024-03-01T09:45:33.688Z,86.71
2024-03-01T09:50:33.618Z,85.47
2024-03-01T09:55:33.617Z,86.19
2024-03-01T10:00:33.488Z,86.33
2024-03-01T10:05:33.397Z,86.48
2024-03-01T10:10:33.398Z,86.68
2024-03-01T10:15:33.243Z,86.32
2024-03-01T10:20:33.242Z,86.11
2024-03-01T10:25:33.206Z,85.90
2024-03-01T10:30:33.048Z,85.14
2024-03-01T10:35:33.055Z,83.87
2024-03-01T10:40:33.087Z,81.96
2024-03-01T10:45:32.889Z,82.37
2024-03-01T10:50:32.831Z,82.82
2024-03-01T10:55:32.825Z,81.79
2024-03-01T11:00:32.690Z,81.48
2024-03-01T11:05:32.576Z,81.07
2024-03-01T11:10:32.580Z,79.67
2024-03-01T11:15:32.453Z,78.98
2024-03-01T11:20:32.396Z,78.98
2024-03-01T11:25:32.361Z,78.27
2024-03-01T11:30:32.282Z,78.64
2024-03-01T11:35:32.173Z,77.92
2024-03-01T11:40:32.162Z,77.98
2024-03-01T11:45:32.043Z,76.34
2024-03-01T11:50:32.188Z,71.22
2024-03-01T11:55:31.963Z,69.92
2024-03-01T12:00:31.939Z,69.79
2024-03-01T12:05:31.820Z,71.28
2024-03-01T12:10:31.827Z,70.87
2024-03-01T12:15:31.638Z,72.44
2024-03-01T12:20:31.620Z,71.73
2024-03-01T12:25:31.525Z,69.17
2024-03-01T12:30:31.492Z,67.68
2024-03-01T12:35:31.353Z,67.74
2024-03-01T12:40:31.362Z,68.60
2024-03-01T12:45:31.340Z,66.52
2024-03-01T12:50:31.199Z,64.22
2024-03-01T12:55:31.160Z,64.15
2024-03-01T13:00:31.091Z,64.39
2024-03-01T13:05:30.974Z,65.23
2024-03-01T13:10:30.898Z,66.52
2024-03-01T13:15:30.845Z,66.72
2024-03-01T13:20:30.815Z,66.86
2024-03-01T13:25:30.762Z,67.13
2024-03-01T13:30:30.654Z,66.18
2024-03-01T13:35:30.582Z,65.37
2024-03-01T13:40:30.535Z,66.80
2024-03-01T13:45:30.505Z,66.69
2024-03-01T13:50:30.409Z,66.15
2024-03-01T13:55:30.358Z,66.52
2024-03-01T14:00:30.267Z,66.69
2024-03-01T14:05:30.172Z,67.10
2024-03-01T14:10:30.188Z,66.69
2024-03-01T14:15:30.020Z,66.49
2024-03-01T14:20:29.975Z,65.26
2024-03-01T14:25:29.954Z,64.45
2024-03-01T14:30:29.844Z,65.19
2024-03-01T14:35:29.769Z,65.26
2024-03-01T14:40:29.732Z,65.73
2024-03-01T14:45:29.662Z,65.94
2024-03-01T14:50:29.568Z,66.55
2024-03-01T14:55:29.509Z,66.55
2024-03-01T15:00:29.435Z,66.75
2024-03-01T15:05:29.362Z,67.19
2024-03-01T15:10:29.321Z,67.30
2024-03-01T15:15:29.236Z,68.12
2024-03-01T15:20:29.140Z,68.15
2024-03-01T15:25:29.114Z,68.66
2024-03-01T15:30:29.028Z,68.15
2024-03-01T15:35:28.971Z,67.67
2024-03-01T15:40:28.905Z,67.97
2024-03-01T15:45:28.832Z,67.57
2024-03-01T15:50:28.757Z,67.05
2024-03-01T15:55:28.707Z,65.65
2024-03-01T16:00:28.624Z,66.16
2024-03-01T16:05:28.699Z,65.55
2024-03-01T16:10:28.542Z,65.86
2024-03-01T16:15:28.430Z,65.86
2024-03-01T16:20:28.356Z,65.68
2024-03-01T16:25:29.278Z,66.40
2024-03-01T16:30:28.217Z,66.09
2024-03-01T16:35:28.152Z,66.40
2024-03-01T16:40:28.102Z,66.33
2024-03-01T16:45:28.028Z,66.74
2024-03-01T16:50:27.939Z,67.59
2024-03-01T16:55:27.958Z,68.10
2024-03-01T17:00:27.843Z,68.82
2024-03-01T17:05:27.813Z,69.16
2024-03-01T17:10:27.695Z,69.67
2024-03-01T17:15:27.625Z,70.53
2024-03-01T17:20:27.582Z,71.14
2024-03-01T17:25:27.492Z,71.66
2024-03-01T17:30:27.419Z,72.20
2024-03-01T17:35:27.353Z,73.02
2024-03-01T17:40:27.308Z,73.78
2024-03-01T17:45:27.194Z,74.19
2024-03-01T17:50:27.150Z,74.43
2024-03-01T17:55:27.112Z,74.84
2024-03-01T18:00:27.014Z,75.46
2024-03-01T18:05:26.952Z,75.97
2024-03-01T18:10:27.625Z,76.31
2024-03-01T18:15:26.821Z,76.73
2024-03-01T18:20:26.809Z,77.14
2024-03-01T18:25:26.736Z,77.48
2024-03-01T18:30:26.746Z,77.69
2024-03-01T18:35:26.710Z,77.89
2024-03-01T18:40:26.578Z,78.10
2024-03-01T18:45:26.521Z,78.34
2024-03-01T18:50:26.367Z,78.65
2024-03-01T18:55:26.335Z,78.65
2024-03-01T19:00:28.179Z,78.75
2024-03-01T19:05:26.153Z,78.86
2024-03-01T19:10:26.138Z,79.06
2024-03-01T19:15:26.066Z,78.86
2024-03-01T19:20:25.932Z,78.55
2024-03-01T19:25:25.890Z,78.55
2024-03-01T19:30:25.822Z,78.86
2024-03-01T19:35:25.722Z,79.00
2024-03-01T19:40:25.731Z,78.34
2024-03-01T19:45:25.613Z,78.44
2024-03-01T19:50:25.537Z,78.34
2024-03-01T19:55:25.520Z,78.24
2024-03-01T20:00:25.415Z,78.34
2024-03-01T20:05:25.342Z,78.14
2024-03-01T20:10:25.304Z,78.34
2024-03-01T20:15:25.205Z,78.79
2024-03-01T20:20:25.131Z,78.89
2024-03-01T20:25:25.099Z,78.89
2024-03-01T20:30:25.095Z,79.00
2024-03-01T20:35:24.916Z,79.20
2024-03-01T20:40:24.983Z,79.44
2024-03-01T20:45:24.804Z,79.75
2024-03-01T20:50:24.752Z,79.75
2024-03-01T20:55:24.719Z,80.06
2024-03-01T21:00:24.688Z,80.16
2024-03-01T21:05:24.586Z,80.37
2024-03-01T21:10:24.543Z,80.47
2024-03-01T21:15:24.382Z,80.58
2024-03-01T21:20:24.360Z,81.09
2024-03-01T21:25:26.733Z,81.61
2024-03-01T21:30:24.229Z,82.23
2024-03-01T21:35:24.111Z,82.54
2024-03-01T21:40:24.078Z,83.05
2024-03-01T21:45:24.047Z,83.47
2024-03-01T21:50:23.971Z,83.67
2024-03-01T21:55:23.900Z,83.87
2024-03-01T22:00:23.855Z,84.29
2024-03-01T22:05:23.814Z,84.64
2024-03-01T22:10:23.652Z,85.25
2024-03-01T22:15:23.622Z,85.46
2024-03-01T22:20:23.532Z,85.57
2024-03-01T22:25:23.445Z,85.77
2024-03-01T22:30:23.408Z,85.81
2024-03-01T22:35:23.319Z,86.12
2024-03-01T22:40:23.263Z,86.57
2024-03-01T22:45:23.304Z,87.50
2024-03-01T22:50:23.222Z,87.26
2024-03-01T22:55:23.039Z,86.84
2024-03-01T23:00:23.510Z,86.63
2024-03-01T23:05:22.906Z,86.22
2024-03-01T23:10:22.848Z,85.67
2024-03-01T23:15:22.790Z,85.57
2024-03-01T23:20:22.743Z,86.02
2024-03-01T23:25:22.650Z,85.87
2024-03-01T23:30:22.624Z,85.25
2024-03-01T23:35:22.499Z,84.94
2024-03-01T23:40:22.470Z,85.30
2024-03-01T23:45:22.458Z,86.02
2024-03-01T23:50:22.341Z,86.68
2024-03-01T23:55:22.385Z,86.63
